METAR Data
IDs: Format: Raw Decoded Include TAF

Data at: 0214 UTC 19 Feb 2019

KBWI 190154Z 32016G25KT 10SM BKN055 03/M06 A3031 RMK AO2 SLP263 T00281061
KBWI 190054Z 30008KT 10SM BKN060 03/M06 A3028 RMK AO2 SLP255 T00331056
KBWI 182354Z 27011KT 10SM BKN060 BKN160 04/M05 A3024 RMK AO2 PK WND 29028/2302 SLP241 T00391050 10083 20039 53056
KBWI 182254Z 30010G22KT 10SM BKN060 BKN160 OVC250 04/M05 A3019 RMK AO2 PK WND 30027/2204 SLP223 T00441050
KBWI 182154Z 30019G23KT 10SM FEW050 BKN070 BKN160 OVC250 06/M04 A3013 RMK AO2 PK WND 28029/2113 SLP203 T00561039
KBWI 182054Z 30020G30KT 10SM FEW050 BKN060 BKN160 BKN250 07/M04 A3008 RMK AO2 PK WND 27032/2015 SLP185 T00671039 51033
KBWI 181954Z 28018G30KT 10SM FEW048 BKN060 BKN160 BKN250 07/M03 A3005 RMK AO2 PK WND 30034/1910 SLP175 T00671033
KBWI 181854Z 30016G29KT 10SM SCT050 SCT220 BKN250 07/M02 A3002 RMK AO2 PK WND 28034/1759 SLP165 T00721022
KBWI 181754Z 29020G31KT 10SM SCT049 BKN250 08/M02 A2998 RMK AO2 PK WND 29034/1710 SLP152 T00781017 10089 20022 51026
KBWI 181654Z 29013G22KT 10SM BKN047 BKN160 BKN250 08/00 A2997 RMK AO2 PK WND 29031/1638 SLP148 T00830000
KBWI 181554Z 28014KT 10SM SCT043 SCT160 BKN250 07/02 A2994 RMK AO2 SLP137 T00670017
KBWI 181454Z 28005KT 10SM FEW041 SCT140 BKN250 06/03 A2990 RMK AO2 SLP126 T00560028 51028
KBWI 181354Z 30007KT 9SM FEW036 FEW140 BKN220 BKN250 05/03 A2988 RMK AO2 SLP119 T00500033
KBWI 181254Z 29003KT 8SM FEW038 SCT190 BKN220 03/03 A2985 RMK AO2 SLP108 T00330028
KBWI 181154Z COR 23003KT 7SM SCT038 BKN110 OVC190 03/02 A2982 RMK AO2 SLP099 60024 70049 I6000 T00280022 10033 20017 51028 $
KBWI 181054Z 00000KT 7SM FEW017 BKN030 OVC110 03/03 A2979 RMK AO2 RAE32 SLP088 P0000 T00330028 $
KBWI 181024Z 00000KT 6SM -RA BR SCT016 BKN037 OVC110 03/03 A2979 RMK AO2 P0000 T00330028 $
KBWI 180954Z 00000KT 5SM -RA BR FEW006 BKN015 OVC040 03/03 A2979 RMK AO2 SLP088 P0003 T00280028 $
KBWI 180854Z 06003KT 5SM R10/2800VP6000FT -RA BR BKN006 OVC011 03/02 A2974 RMK AO2 PRESFR SLP071 P0008 60021 I3000 T00280022 56052 $
KBWI 180754Z 00000KT 5SM -RA BR BKN006 OVC020 03/02 A2979 RMK AO2 SLP088 P0007 T00280022 /
KBWI 180654Z 14005KT 4SM -RA BR BKN005 OVC020 02/02 A2978 RMK AO2 PRESFR SLP086 P0006 I1000 T00220017 $
KBWI 180554Z COR 28003KT 6SM -RA BR BKN006 OVC021 02/01 A2989 RMK AO2 SLP123 P0004 60024 I1000 I6000 T00170011 10017 20006 56021 /
KBWI 180454Z 32007KT 6SM -RA BR BKN004 BKN020 OVC090 01/01 A2990 RMK AO2 PRESRR SLP125 P0004 T00110011 400281033 $
KBWI 180445Z COR 13004G18KT 4SM -RA BR SCT004 BKN022 OVC090 01/01 A2984 RMK AO2 P0004 T00110006
KBWI 180354Z 15003KT 5SM -RA BR OVC012 01/01 A2992 RMK AO2 SLP133 P0006 T00110006 $
KBWI 180337Z 00000KT 5SM -RA BR BKN014 BKN020 OVC046 01/01 A2994 RMK AO2 P0005 T00110006 $
KBWI 180254Z COR 12003KT 5SM -RA BR OVC015 01/01 A2995 RMK AO2 SLP144 P0004 60010 I1000 I3000 T00110006 50003 $
KBWI 180154Z COR 00000KT 7SM -RA OVC029 01/M01 A2996 RMK AO2 RAB02 PRESRR SLP145 P0003 T00111006 $
KBWI 180054Z 16004KT 10SM BKN033 OVC065 01/M01 A2994 RMK AO2 RAE46 SLP141 P0003 T00111011 $
KBWI 172354Z 16005KT 10SM -RA SCT040 SCT060 OVC085 01/M02 A2997 RMK AO2 SLP148 PCPN VRY LGT P0001 60001 T00111022 10028 20011 58017
KBWI 172254Z 15006KT 10SM -RA OVC040 02/M04 A3000 RMK AO2 RAB32 SLP160 P0000 T00221039
KBWI 172154Z 16005KT 10SM OVC040 03/M07 A3002 RMK AO2 SLP166 T00281072
KBWI 172054Z 12006KT 10SM BKN050 OVC060 03/M07 A3001 RMK AO2 SLP165 T00281067 56033
KBWI 171954Z 08004KT 10SM BKN065 OVC200 02/M06 A3005 RMK AO2 SLP176 T00221056
KBWI 171854Z 07008KT 10SM BKN055 BKN075 OVC200 02/M06 A3007 RMK AO2 SLP183 T00171056
KBWI 171754Z 05004KT 10SM BKN050 OVC200 02/M06 A3011 RMK AO2 SLP198 T00171061 10022 21022 58003
KBWI 171654Z VRB04KT 10SM SCT120 OVC180 01/M07 A3012 RMK AO2 SLP202 T00111067
KBWI 171554Z VRB04KT 10SM FEW075 SCT200 OVC250 01/M07 A3017 RMK AO2 SLP216 T00111067
KBWI 171454Z 09009KT 10SM FEW150 BKN250 01/M06 A3012 RMK AO2 SLP201 T00111061 50005